createdAt,value
2018-05-10T00:01:54.961Z,52.43
2018-05-10T00:04:28.640Z,49.50
2018-05-10T00:07:02.278Z,50.43
2018-05-10T00:09:35.887Z,56.07
2018-05-10T00:12:09.572Z,54.63
2018-05-10T00:14:43.124Z,60.73
2018-05-10T00:17:16.776Z,53.93
2018-05-10T00:19:50.355Z,53.57
2018-05-10T00:22:23.904Z,57.97
2018-05-10T00:24:57.488Z,56.93
2018-05-10T00:27:31.024Z,56.63
2018-05-10T00:30:04.834Z,56.10
2018-05-10T00:32:38.475Z,60.73
2018-05-10T00:35:12.231Z,61.00
2018-05-10T00:37:45.901Z,62.57
2018-05-10T00:40:19.494Z,56.40
2018-05-10T00:42:53.213Z,58.50
2018-05-10T00:45:26.860Z,63.00
2018-05-10T00:48:00.379Z,60.47
2018-05-10T00:50:34.184Z,68.80
2018-05-10T00:53:07.760Z,65.43
2018-05-10T00:55:41.340Z,68.97
2018-05-10T00:58:14.967Z,62.93
2018-05-10T01:00:48.709Z,62.83
2018-05-10T01:03:22.260Z,63.70
2018-05-10T01:05:55.908Z,60.67
2018-05-10T01:08:29.688Z,63.20
2018-05-10T01:11:03.316Z,57.47
2018-05-10T01:13:37.178Z,55.83
2018-05-10T01:16:11.089Z,60.80
2018-05-10T01:18:44.704Z,54.20
2018-05-10T01:21:18.291Z,59.40
2018-05-10T01:23:51.915Z,59.20
2018-05-10T01:26:25.924Z,57.73
2018-05-10T01:28:59.656Z,58.17
2018-05-10T01:31:33.264Z,56.30
2018-05-10T01:34:06.847Z,65.33
2018-05-10T01:36:40.488Z,63.80
2018-05-10T01:39:14.209Z,67.40
2018-05-10T01:41:48.016Z,64.23
2018-05-10T01:44:21.532Z,63.27
2018-05-10T01:46:55.543Z,60.10
2018-05-10T01:49:29.089Z,60.67
2018-05-10T01:52:02.611Z,61.60
2018-05-10T01:54:36.144Z,65.80
2018-05-10T01:57:09.702Z,66.13
2018-05-10T01:59:43.319Z,60.53
2018-05-10T02:02:16.896Z,60.80
2018-05-10T02:04:50.455Z,62.60
2018-05-10T02:07:24.072Z,59.27
2018-05-10T02:09:58.060Z,52.23
2018-05-10T02:12:31.822Z,52.63
2018-05-10T02:15:05.328Z,51.30
2018-05-10T02:17:39.028Z,53.63
2018-05-10T02:20:12.516Z,55.10
2018-05-10T02:22:46.232Z,54.07
2018-05-10T02:25:19.818Z,53.60
2018-05-10T02:27:53.403Z,51.23
2018-05-10T02:30:27.186Z,48.07
2018-05-10T02:33:00.795Z,48.97
2018-05-10T02:35:34.358Z,49.97
2018-05-10T02:38:07.957Z,52.20
2018-05-10T02:40:41.514Z,51.77
2018-05-10T02:43:15.235Z,50.07
2018-05-10T02:45:48.865Z,52.07
2018-05-10T02:48:22.416Z,45.27
2018-05-10T02:50:56.110Z,47.50
2018-05-10T02:53:29.598Z,46.13
2018-05-10T02:56:03.352Z,45.97
2018-05-10T02:58:37.054Z,41.23
2018-05-10T03:01:10.740Z,38.10
2018-05-10T03:03:44.445Z,38.40
2018-05-10T03:06:17.961Z,36.70
2018-05-10T03:08:51.672Z,30.13
2018-05-10T03:11:25.431Z,28.13
2018-05-10T03:13:59.103Z,22.97
2018-05-10T03:16:32.640Z,22.20
2018-05-10T03:19:06.177Z,19.87
2018-05-10T03:21:39.732Z,19.43
2018-05-10T03:24:13.309Z,20.80
2018-05-10T03:26:46.860Z,22.23
2018-05-10T03:29:20.572Z,23.43
2018-05-10T03:31:54.196Z,25.97
2018-05-10T03:34:27.772Z,24.50
2018-05-10T03:37:01.353Z,23.47
2018-05-10T03:39:34.913Z,21.60
2018-05-10T03:42:08.608Z,27.83
2018-05-10T03:44:42.169Z,26.23
2018-05-10T03:47:15.732Z,24.30
2018-05-10T03:49:49.227Z,25.53
2018-05-10T03:52:23.000Z,28.07
2018-05-10T03:54:56.720Z,26.33
2018-05-10T03:57:30.319Z,28.80
2018-05-10T04:00:03.892Z,27.90
2018-05-10T04:02:41.484Z,33.53
2018-05-10T04:05:26.992Z,30.23
2018-05-10T04:08:12.387Z,32.90
2018-05-10T04:10:57.980Z,36.37
2018-05-10T04:13:32.504Z,33.00
2018-05-10T04:16:06.042Z,37.67
2018-05-10T04:18:39.545Z,33.97
2018-05-10T04:21:13.264Z,36.50
2018-05-10T04:23:46.823Z,36.13
2018-05-10T04:26:20.420Z,37.53
2018-05-10T04:28:54.004Z,37.27
2018-05-10T04:31:27.604Z,37.77
2018-05-10T04:34:01.191Z,35.37
2018-05-10T04:36:34.812Z,36.60
2018-05-10T04:39:08.344Z,38.53
2018-05-10T04:41:42.036Z,38.97
2018-05-10T04:44:15.616Z,39.73
2018-05-10T04:46:49.379Z,39.40
2018-05-10T04:49:23.106Z,38.87
2018-05-10T04:51:56.744Z,40.10
2018-05-10T04:54:30.428Z,40.23
2018-05-10T04:57:04.216Z,45.37
2018-05-10T04:59:38.184Z,40.27
2018-05-10T05:02:11.812Z,46.57
2018-05-10T05:04:45.572Z,43.60
2018-05-10T05:07:19.101Z,42.03
2018-05-10T05:09:52.928Z,42.13
2018-05-10T05:12:26.566Z,39.93
2018-05-10T05:15:00.184Z,40.83
2018-05-10T05:17:33.847Z,37.70
2018-05-10T05:20:07.615Z,42.10
2018-05-10T05:22:41.356Z,37.93
2018-05-10T05:25:14.860Z,40.00
2018-05-10T05:27:48.644Z,39.77
2018-05-10T05:30:22.169Z,36.83
2018-05-10T05:32:55.920Z,36.83
2018-05-10T05:35:29.539Z,35.00
2018-05-10T05:38:03.052Z,35.20
2018-05-10T05:40:36.632Z,32.77
2018-05-10T05:43:10.279Z,29.00
2018-05-10T05:45:44.154Z,28.83
2018-05-10T05:48:17.917Z,29.60
2018-05-10T05:50:51.549Z,31.57
2018-05-10T05:53:25.211Z,28.83
2018-05-10T05:55:58.800Z,28.10
2018-05-10T05:58:32.564Z,29.50
2018-05-10T06:01:06.257Z,31.13
2018-05-10T06:03:39.756Z,29.23
2018-05-10T06:06:13.289Z,31.93
2018-05-10T06:08:46.868Z,30.80
2018-05-10T06:11:20.420Z,31.70
2018-05-10T06:13:54.012Z,30.63
2018-05-10T06:16:27.691Z,30.90
2018-05-10T06:19:01.452Z,31.73
2018-05-10T06:21:35.323Z,32.77
2018-05-10T06:24:09.008Z,31.20
2018-05-10T06:26:42.690Z,25.60
2018-05-10T06:29:16.343Z,28.00
2018-05-10T06:31:50.000Z,29.10
2018-05-10T06:34:23.604Z,26.00
2018-05-10T06:36:57.123Z,24.30
2018-05-10T06:39:30.864Z,19.97
2018-05-10T06:42:04.536Z,19.07
2018-05-10T06:44:38.101Z,15.37
2018-05-10T06:47:25.743Z,17.20
2018-05-10T06:49:59.520Z,17.77
2018-05-10T06:52:33.277Z,15.57
2018-05-10T06:55:06.964Z,16.97
2018-05-10T06:57:40.600Z,15.93
2018-05-10T07:00:14.273Z,15.47
2018-05-10T07:02:48.049Z,14.50
2018-05-10T07:05:21.625Z,18.80
2018-05-10T07:07:55.224Z,19.57
2018-05-10T07:10:28.896Z,15.57
2018-05-10T07:13:02.660Z,15.03
2018-05-10T07:15:36.528Z,15.17
2018-05-10T07:18:10.095Z,16.70
2018-05-10T07:20:43.625Z,16.20
2018-05-10T07:23:17.280Z,18.80
2018-05-10T07:25:50.811Z,17.37
2018-05-10T07:28:24.462Z,19.00
2018-05-10T07:30:58.111Z,20.33
2018-05-10T07:33:31.767Z,18.60
2018-05-10T07:36:05.339Z,20.00
2018-05-10T07:38:39.048Z,15.20
2018-05-10T07:41:12.630Z,17.30
2018-05-10T07:43:46.305Z,19.03
2018-05-10T07:46:19.871Z,19.23
2018-05-10T07:48:53.392Z,17.80
2018-05-10T07:51:27.332Z,18.00
2018-05-10T07:54:00.917Z,16.00
2018-05-10T07:56:34.472Z,18.77
2018-05-10T07:59:08.048Z,18.70
2018-05-10T08:01:41.672Z,14.27
2018-05-10T08:04:15.354Z,19.43
2018-05-10T08:06:48.932Z,15.07
2018-05-10T08:09:22.564Z,17.03
2018-05-10T08:11:56.212Z,24.90
2018-05-10T08:14:29.867Z,21.17
2018-05-10T08:17:03.692Z,22.93
2018-05-10T08:19:37.252Z,21.20
2018-05-10T08:22:10.776Z,21.70
2018-05-10T08:24:44.376Z,25.47
2018-05-10T08:27:18.157Z,23.87
2018-05-10T08:29:51.741Z,21.97
2018-05-10T08:32:25.265Z,21.23
2018-05-10T08:34:59.080Z,19.37
2018-05-10T08:37:32.586Z,22.87
2018-05-10T08:40:06.205Z,22.60
2018-05-10T08:42:39.862Z,21.80
2018-05-10T08:45:13.661Z,20.43
2018-05-10T08:47:47.401Z,21.63
2018-05-10T08:50:20.951Z,23.90
2018-05-10T08:52:54.622Z,20.90
2018-05-10T08:55:28.429Z,19.00
2018-05-10T08:58:02.129Z,20.00
2018-05-10T09:00:35.933Z,13.87
2018-05-10T09:03:09.428Z,18.27
2018-05-10T09:05:42.928Z,16.90
2018-05-10T09:08:16.738Z,15.70
2018-05-10T09:10:50.402Z,17.10
2018-05-10T09:13:24.056Z,15.93
2018-05-10T09:15:57.668Z,15.80
2018-05-10T09:18:31.340Z,14.73
2018-05-10T09:21:04.929Z,17.33
2018-05-10T09:23:38.543Z,16.73
2018-05-10T09:26:12.242Z,21.87
2018-05-10T09:28:45.909Z,18.57
2018-05-10T09:31:19.468Z,16.97
2018-05-10T09:33:53.042Z,16.13
2018-05-10T09:36:26.621Z,17.27
2018-05-10T09:39:00.373Z,11.53
2018-05-10T09:41:34.109Z,13.93
2018-05-10T09:44:07.777Z,8.20
2018-05-10T09:46:41.457Z,8.87
2018-05-10T09:49:15.058Z,6.97
2018-05-10T09:51:48.557Z,6.73
2018-05-10T09:54:22.120Z,7.00
2018-05-10T09:56:55.729Z,6.37
2018-05-10T09:59:29.292Z,7.33
2018-05-10T10:02:02.921Z,6.53
2018-05-10T10:04:36.738Z,5.83
2018-05-10T10:07:10.352Z,7.00
2018-05-10T10:09:43.906Z,8.40
2018-05-10T10:12:17.535Z,4.03
2018-05-10T10:14:51.288Z,4.53
2018-05-10T10:17:24.849Z,3.37
2018-05-10T10:19:58.468Z,3.90
2018-05-10T10:22:32.221Z,3.50
2018-05-10T10:25:05.956Z,2.60
2018-05-10T10:27:39.493Z,4.53
2018-05-10T10:30:13.235Z,1.97
2018-05-10T10:32:47.002Z,3.57
2018-05-10T10:35:20.753Z,4.20
2018-05-10T10:37:54.552Z,6.63
2018-05-10T10:40:28.297Z,5.27
2018-05-10T10:43:02.130Z,5.77
2018-05-10T10:45:35.677Z,9.43
2018-05-10T10:48:09.499Z,8.27
2018-05-10T10:50:43.213Z,10.17
2018-05-10T10:53:16.849Z,8.20
2018-05-10T10:55:50.617Z,9.07
2018-05-10T10:58:24.151Z,10.57
2018-05-10T11:00:57.669Z,7.97
2018-05-10T11:03:31.281Z,14.43
2018-05-10T11:06:04.813Z,10.97
2018-05-10T11:08:38.429Z,8.40
2018-05-10T11:11:12.137Z,10.03
2018-05-10T11:13:45.688Z,11.73
2018-05-10T11:16:19.239Z,12.70
2018-05-10T11:18:53.100Z,12.53
2018-05-10T11:21:26.649Z,13.00
2018-05-10T11:24:00.381Z,15.43
2018-05-10T11:26:33.901Z,14.60
2018-05-10T11:29:07.429Z,12.33
2018-05-10T11:31:40.957Z,18.80
2018-05-10T11:34:14.588Z,16.50
2018-05-10T11:36:48.186Z,16.50
2018-05-10T11:39:21.901Z,18.97
2018-05-10T11:41:55.589Z,18.17
2018-05-10T11:44:29.146Z,20.43
2018-05-10T11:47:02.793Z,24.37
2018-05-10T11:49:36.368Z,20.60
2018-05-10T11:52:09.954Z,20.47
2018-05-10T11:54:43.625Z,21.17
2018-05-10T11:57:17.402Z,22.80
2018-05-10T11:59:50.876Z,27.97
2018-05-10T12:02:24.389Z,23.77
2018-05-10T12:04:58.150Z,27.90
2018-05-10T12:07:31.697Z,27.30
2018-05-10T12:10:05.290Z,23.93
2018-05-10T12:12:39.000Z,24.87
2018-05-10T12:15:12.677Z,26.27
2018-05-10T12:17:46.259Z,25.53
2018-05-10T12:20:19.877Z,27.97
2018-05-10T12:22:53.369Z,24.57
2018-05-10T12:25:27.168Z,26.87
2018-05-10T12:28:00.873Z,28.17
2018-05-10T12:30:34.473Z,29.80
2018-05-10T12:33:08.199Z,24.27
2018-05-10T12:35:41.722Z,26.50
2018-05-10T12:38:15.252Z,28.60
2018-05-10T12:40:48.753Z,27.77
2018-05-10T12:43:22.290Z,28.00
2018-05-10T12:45:56.040Z,27.80
2018-05-10T12:48:29.789Z,30.73
2018-05-10T12:51:03.404Z,28.33
2018-05-10T12:53:37.122Z,32.17
2018-05-10T12:56:10.873Z,31.33
2018-05-10T12:58:44.385Z,34.63
2018-05-10T13:01:18.093Z,31.47
2018-05-10T13:03:51.686Z,34.13
2018-05-10T13:06:25.260Z,31.97
2018-05-10T13:08:59.023Z,29.97
2018-05-10T13:11:32.849Z,32.47
2018-05-10T13:14:06.478Z,31.40
2018-05-10T13:16:40.207Z,27.77
2018-05-10T13:19:13.730Z,31.50
2018-05-10T13:21:47.453Z,30.10
2018-05-10T13:24:21.158Z,35.57
2018-05-10T13:26:54.638Z,27.47
2018-05-10T13:29:28.461Z,35.60
2018-05-10T13:32:01.991Z,31.00
2018-05-10T13:34:35.802Z,29.43
2018-05-10T13:37:09.459Z,29.07
2018-05-10T13:39:43.228Z,30.73
2018-05-10T13:42:16.948Z,34.30
2018-05-10T13:44:50.652Z,32.00
2018-05-10T13:47:24.387Z,30.00
2018-05-10T13:49:57.873Z,31.53
2018-05-10T13:52:31.582Z,30.63
2018-05-10T13:55:05.221Z,34.80
2018-05-10T13:57:38.949Z,29.67
2018-05-10T14:00:12.481Z,24.40
2018-05-10T14:02:46.060Z,32.90
2018-05-10T14:05:19.677Z,32.23
2018-05-10T14:07:53.521Z,36.73
2018-05-10T14:10:27.118Z,27.27
2018-05-10T14:13:00.765Z,26.50
2018-05-10T14:15:35.014Z,30.70
2018-05-10T14:18:08.676Z,25.50
2018-05-10T14:20:42.502Z,32.87
2018-05-10T14:23:16.129Z,35.17
2018-05-10T14:25:49.912Z,34.97
2018-05-10T14:28:23.477Z,32.47
2018-05-10T14:30:57.334Z,35.20
2018-05-10T14:33:31.026Z,30.37
2018-05-10T14:36:04.574Z,33.70
2018-05-10T14:38:38.245Z,33.97
2018-05-10T14:41:11.907Z,29.33
2018-05-10T14:43:45.600Z,31.30
2018-05-10T14:46:19.207Z,34.57
2018-05-10T14:48:52.981Z,33.80
2018-05-10T14:51:26.719Z,29.77
2018-05-10T14:54:00.527Z,31.87
2018-05-10T14:56:34.274Z,33.90
2018-05-10T14:59:07.917Z,29.37
2018-05-10T15:01:41.648Z,30.83
2018-05-10T15:04:15.177Z,26.47
2018-05-10T15:06:48.929Z,30.00
2018-05-10T15:09:22.485Z,25.13
2018-05-10T15:11:56.063Z,29.60
2018-05-10T15:14:29.657Z,31.30
2018-05-10T15:17:03.242Z,24.60
2018-05-10T15:19:36.792Z,24.87
2018-05-10T15:22:10.601Z,28.50
2018-05-10T15:24:44.237Z,30.60
2018-05-10T15:27:17.877Z,22.00
2018-05-10T15:29:51.456Z,18.57
2018-05-10T15:32:25.214Z,24.97
2018-05-10T15:34:58.893Z,20.40
2018-05-10T15:37:32.744Z,23.17
2018-05-10T15:40:06.394Z,26.33
2018-05-10T15:42:39.945Z,19.03
2018-05-10T15:45:13.500Z,18.20
2018-05-10T15:47:47.096Z,16.23
2018-05-10T15:50:20.647Z,19.37
2018-05-10T15:52:54.127Z,17.90
2018-05-10T15:55:27.964Z,17.40
2018-05-10T15:58:01.560Z,18.40
2018-05-10T16:00:35.205Z,16.37
2018-05-10T16:03:09.048Z,14.70
2018-05-10T16:05:42.796Z,14.50
2018-05-10T16:08:16.576Z,10.30
2018-05-10T16:10:50.214Z,11.87
2018-05-10T16:13:24.072Z,8.50
2018-05-10T16:15:57.675Z,12.73
2018-05-10T16:18:31.219Z,9.07
2018-05-10T16:21:04.785Z,12.23
2018-05-10T16:23:38.660Z,10.53
2018-05-10T16:26:12.337Z,8.43
2018-05-10T16:28:46.040Z,11.47
2018-05-10T16:31:19.641Z,10.73
2018-05-10T16:33:53.348Z,7.50
2018-05-10T16:36:26.923Z,11.27
2018-05-10T16:39:00.555Z,11.27
2018-05-10T16:41:34.121Z,12.33
2018-05-10T16:44:07.739Z,13.10
2018-05-10T16:46:41.396Z,10.07
2018-05-10T16:49:15.155Z,11.37
2018-05-10T16:51:48.794Z,8.27
2018-05-10T16:54:22.445Z,8.57
2018-05-10T16:56:56.156Z,8.10
2018-05-10T16:59:29.934Z,6.47
2018-05-10T17:02:03.724Z,9.47
2018-05-10T17:04:37.432Z,7.43
2018-05-10T17:07:11.309Z,15.87
2018-05-10T17:09:45.113Z,11.13
2018-05-10T17:12:18.932Z,7.97
2018-05-10T17:14:52.515Z,8.80
2018-05-10T17:17:26.140Z,8.87
2018-05-10T17:19:59.861Z,7.53
2018-05-10T17:22:33.585Z,9.57
2018-05-10T17:25:07.273Z,11.00
2018-05-10T17:27:40.936Z,8.17
2018-05-10T17:30:14.530Z,8.67
2018-05-10T17:32:48.506Z,7.93
2018-05-10T17:35:22.224Z,9.07
2018-05-10T17:37:55.965Z,8.47
2018-05-10T17:40:29.645Z,11.50
2018-05-10T17:43:03.620Z,8.03
2018-05-10T17:45:37.538Z,8.80
2018-05-10T17:48:11.301Z,10.13
2018-05-10T17:50:44.979Z,6.30
2018-05-10T17:53:18.711Z,5.33
2018-05-10T17:55:52.372Z,7.27
2018-05-10T17:58:26.029Z,8.80
2018-05-10T18:00:59.663Z,8.20
2018-05-10T18:03:33.439Z,7.23
2018-05-10T18:06:07.074Z,6.67
2018-05-10T18:08:40.758Z,8.43
2018-05-10T18:11:14.418Z,6.73
2018-05-10T18:13:48.188Z,6.80
2018-05-10T18:19:21.978Z,6.23
2018-05-10T18:21:55.841Z,7.83
2018-05-10T18:24:29.531Z,5.30
2018-05-10T18:27:03.190Z,6.63
2018-05-10T18:29:36.768Z,4.40
2018-05-10T18:32:10.672Z,5.87
2018-05-10T18:34:44.323Z,6.27
2018-05-10T18:37:18.030Z,3.73
2018-05-10T18:39:51.717Z,7.10
2018-05-10T18:42:25.303Z,6.23
2018-05-10T18:44:59.025Z,6.27
2018-05-10T18:47:32.742Z,7.80
2018-05-10T18:50:06.425Z,7.57
2018-05-10T18:52:40.041Z,11.80
2018-05-10T18:55:13.873Z,6.07
2018-05-10T18:57:47.546Z,5.47
2018-05-10T19:00:21.211Z,9.60
2018-05-10T19:02:54.930Z,8.90
2018-05-10T19:05:28.661Z,6.73
2018-05-10T19:08:02.330Z,7.23
2018-05-10T19:10:36.057Z,6.03
2018-05-10T19:13:09.874Z,4.57
2018-05-10T19:15:43.707Z,6.73
2018-05-10T19:18:17.377Z,5.33
2018-05-10T19:20:51.148Z,7.13
2018-05-10T19:23:24.835Z,6.30
2018-05-10T19:25:58.587Z,6.63
2018-05-10T19:28:32.222Z,5.53
2018-05-10T19:31:05.959Z,7.53
2018-05-10T19:33:39.622Z,7.13
2018-05-10T19:36:13.243Z,7.47
2018-05-10T19:38:46.882Z,7.73
2018-05-10T19:41:20.603Z,6.97
2018-05-10T19:43:54.105Z,7.03
2018-05-10T19:46:27.739Z,9.40
2018-05-10T19:49:01.763Z,5.93
2018-05-10T19:51:35.778Z,6.93
2018-05-10T19:54:09.382Z,8.63
2018-05-10T19:56:43.004Z,6.80
2018-05-10T19:59:16.640Z,6.27
2018-05-10T20:01:50.366Z,7.17
2018-05-10T20:04:24.122Z,7.03
2018-05-10T20:06:57.858Z,8.33
2018-05-10T20:09:31.411Z,6.37
2018-05-10T20:12:05.170Z,7.87
2018-05-10T20:14:38.805Z,7.93
2018-05-10T20:17:12.616Z,6.23
2018-05-10T20:19:46.478Z,7.63
2018-05-10T20:22:20.174Z,7.13
2018-05-10T20:24:53.925Z,8.87
2018-05-10T20:27:27.684Z,10.40
2018-05-10T20:30:01.378Z,6.90
2018-05-10T20:32:35.106Z,7.30
2018-05-10T20:35:08.843Z,5.57
2018-05-10T20:37:42.491Z,6.33
2018-05-10T20:40:16.197Z,8.60
2018-05-10T20:42:49.914Z,8.23
2018-05-10T20:45:23.627Z,7.50
2018-05-10T20:47:57.217Z,5.13
2018-05-10T20:50:30.985Z,6.23
2018-05-10T20:53:04.748Z,7.93
2018-05-10T20:55:38.625Z,9.17
2018-05-10T20:58:12.266Z,6.87
2018-05-10T21:00:46.022Z,7.30
2018-05-10T21:03:19.690Z,8.77
2018-05-10T21:05:53.495Z,5.47
2018-05-10T21:08:27.522Z,6.93
2018-05-10T21:11:01.247Z,4.83
2018-05-10T21:13:34.956Z,6.37
2018-05-10T21:16:08.497Z,6.07
2018-05-10T21:18:42.159Z,6.87
2018-05-10T21:21:15.892Z,4.90
2018-05-10T21:23:49.692Z,8.23
2018-05-10T21:26:23.487Z,7.63
2018-05-10T21:28:57.222Z,6.73
2018-05-10T21:31:30.852Z,7.10
2018-05-10T21:34:04.653Z,5.27
2018-05-10T21:36:38.188Z,5.63
2018-05-10T21:39:11.881Z,7.47
2018-05-10T21:41:45.655Z,8.87
2018-05-10T21:44:19.352Z,7.83
2018-05-10T21:46:52.970Z,7.13
2018-05-10T21:49:38.625Z,6.83
2018-05-10T21:52:12.341Z,8.47
2018-05-10T21:54:46.159Z,6.97
2018-05-10T21:57:19.951Z,10.43
2018-05-10T21:59:53.525Z,7.23
2018-05-10T22:02:27.152Z,11.73
2018-05-10T22:05:00.874Z,10.57
2018-05-10T22:07:34.678Z,12.17
2018-05-10T22:10:08.213Z,12.23
2018-05-10T22:12:41.933Z,12.93
2018-05-10T22:15:15.641Z,10.97
2018-05-10T22:17:49.282Z,10.97
2018-05-10T22:20:23.066Z,15.27
2018-05-10T22:22:56.807Z,11.40
2018-05-10T22:25:30.525Z,13.63
2018-05-10T22:28:04.085Z,10.80
2018-05-10T22:30:37.863Z,10.47
2018-05-10T22:33:11.577Z,10.97
2018-05-10T22:35:45.177Z,15.50
2018-05-10T22:38:19.037Z,13.27
2018-05-10T22:40:52.810Z,13.73
2018-05-10T22:43:26.442Z,16.90
2018-05-10T22:46:00.041Z,13.87
2018-05-10T22:48:33.681Z,13.40
2018-05-10T22:51:07.672Z,11.90
2018-05-10T22:53:41.403Z,13.17
2018-05-10T22:56:15.167Z,13.13
2018-05-10T22:58:48.985Z,13.53
2018-05-10T23:01:22.700Z,12.73
2018-05-10T23:03:56.490Z,13.70
2018-05-10T23:06:30.073Z,12.73
2018-05-10T23:09:03.725Z,14.00
2018-05-10T23:11:37.533Z,14.00
2018-05-10T23:14:11.133Z,12.87
2018-05-10T23:16:44.913Z,13.80
2018-05-10T23:19:18.737Z,13.50
2018-05-10T23:21:52.438Z,18.13
2018-05-10T23:24:26.057Z,13.67
2018-05-10T23:26:59.925Z,14.10
2018-05-10T23:29:33.844Z,15.83
2018-05-10T23:32:07.544Z,17.27
2018-05-10T23:34:41.191Z,13.80
2018-05-10T23:37:15.067Z,16.47
2018-05-10T23:39:48.688Z,15.43
2018-05-10T23:42:22.262Z,16.37
2018-05-10T23:44:55.909Z,14.97
2018-05-10T23:47:29.613Z,14.47
2018-05-10T23:50:03.193Z,14.33
2018-05-10T23:52:36.804Z,14.73
2018-05-10T23:55:10.532Z,18.00
2018-05-10T23:57:44.355Z,17.13
